Saturday, December 20, 2014
03:43 UTC
  |  Log In   |  Register Free
Airport Search:

Richmond Municipal Airport
(KRID)

Richmond Municipal Airport Diagram
No Airport Diagram Available

FAA data valid effective November 13, 2014 - January 08, 2015 (unless otherwise noted).

 
 
 
 
 
 
 
 
 
 
 
 
 
 

Current Aviation Weather for Richmond Municipal Airport (KRID)

METAR data is unavailable for RID. The nearest METAR location is at KMWO (24.7 nm SE from RID).

The most recent METAR observation for KMWO was updated at: 2117
METAR Summary (Translated METAR)
KMWO
182055Z AUTO 00000KT 10SM SCT025 OVC080 00/M07 A3024 RMK AO2 T00001068
(24.7 nm SE from KRID)
KHAO
182053Z AUTO 01003KT 10SM OVC023 M01/M06 A3024 RMK AO2 SLP248 T10111061 56011
(27.9 nm SE from KRID)
TAF Summary (Translated TAF)
KDAY
(23.7 nm NE from KMWO)
191738Z 1918/2018 VRB03KT 6SM HZ OVC022 FM200900 00000KT 4SM BR OVC022 FM201500 VRB03KT P6SM OVC022
  Airport Weather Conditions for KRID

Current weather conditions are
not available for RID


The nearest NOAA weather station
is at MWO, (24.7 nm SE from RID)
  
 Current Weather at MWO
34° F
Overcast
North winds at 0.0 mph
MWO NOAA Radar

Pressure: 30.30 in
Humidity: 67%
Wind: Calm
Dew Point: 24.3°F
Visibility: 10.00 mi


Airport Weather Forecast for KRID

Translated METAR and TAF for KMWO
Translated METAR for KMWO (0343 UTC 20 December 2014)
found at http://aviationweather.gov/adds/metars/
 
METAR text: KMWO 200335Z AUTO 02004KT 10SM OVC023 01/M04 A3029 RMK AO2 T00121040
Conditions at: KMWO (MIDDLETOWN/HOOK , OH, US) observed 0335 UTC 20 December 2014
Temperature: 1.2°C (34°F)
Dewpoint: -4.0°C (25°F) [RH = 68%]
Pressure (altimeter): 30.29 inches Hg (1025.8 mb)
Winds: from the NNE (20 degrees) at 5 MPH (4 knots; 2.1 m/s)
Visibility: 10 or more miles (16+ km)
Ceiling: 2300 feet AGL
Clouds: overcast cloud deck at 2300 feet AGL
Weather: automated observation with no human augmentation;
there may or may not be significant weather present at this time
Translated TAF for KMWO

There is no translated TAF available for this airport

Find All Airport Services Find A Hotel Find A Rental Car Find A Golf Course Find A Restaurant $100 Hamburger



FBO's on the Field
FBO Company Facility Photos Services Transportation Aviation Fuel Prices: Prices include tax
Catering Weather Repair Courtesy Rental Type 100LL JetA JetA+ MOGAS 8087
 
Richmond Municipal Airport

Currently rated 5 by 1 person
FS:Phillips 66
Last Updated: Dec-17
Login to update fuel prices
SS:
Contact Richmond Municipal AirportMore FBO Information
 
Add another FBO Facility Photos Catering Weather Repair Courtesy Rental Type 100LL JetA JetA+ MOGAS 8087
Services Transportation Aviation Fuel Prices: Prices include tax


model-print
model-print
model-print
model-print